Terminal Aerodrome Forecast
Issued by NWS Memphis, TN

Home | Current Version | Previous Version | Text Only | Print | Product List | Glossary On
Versions: 1 2 3 4 5 6 7 8 9 10 11 12 13 14 15 16 17 18 19 20 21 22 23 24 25 26
000
FTUS44 KMEG 291120
TAFMEM
TAF
KMEM 291120Z 2912/3012 21014G23KT P6SM SCT120 OVC250 WS020/25050KT
     FM291400 24013G22KT P6SM SCT050 SCT120 BKN250
     FM291700 32013G22KT P6SM SCT030 BKN250
     FM300100 35012KT P6SM SCT030 BKN250
     FM300300 36007KT P6SM SCT030 BKN250
     FM300900 36006KT P6SM SKC=

USA.gov is the U.S. government's official web portal to all federal, state and local government web resources and services.